createdAt,value
2023-02-13T00:00:05.854Z,101047.91
2023-02-13T00:02:32.839Z,101112.75
2023-02-13T00:04:59.892Z,101112.75
2023-02-13T00:07:26.833Z,101111.09
2023-02-13T00:09:53.788Z,101111.72
2023-02-13T00:12:20.646Z,101110.66
2023-02-13T00:14:47.550Z,101105.72
2023-02-13T00:17:14.548Z,101110.69
2023-02-13T00:19:41.458Z,101108.66
2023-02-13T00:22:08.581Z,101115.03
2023-02-13T00:24:35.660Z,101103.06
2023-02-13T00:27:02.527Z,101108.00
2023-02-13T00:29:29.497Z,101108.63
2023-02-13T00:31:56.592Z,101112.75
2023-02-13T00:34:23.612Z,101115.22
2023-02-13T00:36:50.564Z,101109.84
2023-02-13T00:39:17.566Z,101106.34
2023-02-13T00:41:44.547Z,101074.75
2023-02-13T00:44:13.011Z,101103.66
2023-02-13T00:46:40.167Z,101107.97
2023-02-13T00:49:07.243Z,101065.66
2023-02-13T00:51:34.717Z,101103.06
2023-02-13T00:54:01.705Z,101105.94
2023-02-13T00:56:28.690Z,101107.78
2023-02-13T00:58:55.616Z,101113.34
2023-02-13T01:01:24.387Z,101104.69
2023-02-13T01:03:51.342Z,101100.16
2023-02-13T01:06:18.258Z,101103.84
2023-02-13T01:08:45.198Z,101108.63
2023-02-13T01:11:12.098Z,101104.06
2023-02-13T01:13:39.061Z,101043.16
2023-02-13T01:16:06.392Z,101102.44
2023-02-13T01:18:33.493Z,101100.56
2023-02-13T01:21:05.950Z,101073.69
2023-02-13T01:23:38.438Z,101097.44
2023-02-13T01:26:06.451Z,101099.53
2023-02-13T01:28:33.789Z,101064.41
2023-02-13T01:31:01.283Z,101095.59
2023-02-13T01:33:28.871Z,101069.38
2023-02-13T01:35:55.751Z,101084.06
2023-02-13T01:38:22.678Z,101083.00
2023-02-13T01:40:51.110Z,101081.38
2023-02-13T01:43:18.406Z,101073.72
2023-02-13T01:45:47.104Z,101074.97
2023-02-13T01:48:19.312Z,101033.47
2023-02-13T01:50:54.172Z,101013.66
2023-02-13T01:53:23.543Z,101070.81
2023-02-13T01:55:56.227Z,101079.28
2023-02-13T01:58:25.381Z,101082.78
2023-02-13T02:00:52.307Z,101073.28
2023-02-13T02:03:30.081Z,101049.75
2023-02-13T02:06:02.682Z,101072.88
2023-02-13T02:08:29.712Z,101076.38
2023-02-13T02:10:56.863Z,101074.34
2023-02-13T02:13:24.269Z,101084.44
2023-02-13T02:15:51.609Z,101083.19
2023-02-13T02:18:23.239Z,101080.75
2023-02-13T02:21:22.059Z,101088.78
2023-02-13T02:24:23.173Z,101087.94
2023-02-13T02:27:10.164Z,101082.78
2023-02-13T02:29:58.884Z,101079.47
2023-02-13T02:32:41.450Z,101080.50
2023-02-13T02:35:39.384Z,101077.84
2023-02-13T02:38:55.683Z,101076.78
2023-02-13T02:41:44.381Z,101032.84
2023-02-13T02:44:16.435Z,101058.00
2023-02-13T02:47:24.283Z,101056.38
2023-02-13T02:49:58.728Z,101053.88
2023-02-13T02:52:48.336Z,101058.00
2023-02-13T02:55:21.441Z,101056.38
2023-02-13T02:58:21.128Z,101054.31
2023-02-13T03:01:06.675Z,101055.75
2023-02-13T03:03:52.903Z,101049.16
2023-02-13T03:06:37.896Z,101054.91
2023-02-13T03:09:25.458Z,101055.34
2023-02-13T03:12:12.036Z,101062.81
2023-02-13T03:14:39.033Z,101054.69
2023-02-13T03:17:24.603Z,101059.97
2023-02-13T03:20:16.701Z,101053.00
2023-02-13T03:23:13.940Z,101062.91
2023-02-13T03:25:50.065Z,101058.75
2023-02-13T03:28:35.841Z,101063.03
2023-02-13T03:31:20.884Z,101037.75
2023-02-13T03:34:00.260Z,101063.72
2023-02-13T03:36:51.870Z,101036.16
2023-02-13T03:39:30.990Z,101063.09
2023-02-13T03:42:04.880Z,101029.31
2023-02-13T03:44:39.113Z,101060.97
2023-02-13T03:47:06.409Z,101063.78
2023-02-13T03:49:58.964Z,101059.56
2023-02-13T03:52:33.215Z,101062.28
2023-02-13T03:55:24.309Z,101066.34
2023-02-13T03:58:11.483Z,101068.22
2023-02-13T04:00:44.466Z,101061.13
2023-02-13T04:03:51.920Z,101055.66
2023-02-13T04:06:21.676Z,101060.06
2023-02-13T04:08:48.572Z,101063.94
2023-02-13T04:11:15.404Z,101063.72
2023-02-13T04:13:53.107Z,101052.28
2023-02-13T04:16:22.338Z,101059.91
2023-02-13T04:18:49.331Z,101004.69
2023-02-13T04:21:17.298Z,101062.81
2023-02-13T04:23:44.267Z,101064.91
2023-02-13T04:26:20.266Z,101064.78
2023-02-13T04:28:47.443Z,101031.91
2023-02-13T04:31:14.502Z,101059.38
2023-02-13T04:33:41.546Z,101064.69
2023-02-13T04:36:08.686Z,101072.13
2023-02-13T04:38:35.646Z,101073.84
2023-02-13T04:41:02.657Z,101076.06
2023-02-13T04:43:29.590Z,101073.13
2023-02-13T04:45:57.083Z,101075.06
2023-02-13T04:48:24.134Z,101080.53
2023-02-13T04:50:51.140Z,101079.16
2023-02-13T04:53:18.046Z,101078.88
2023-02-13T04:55:44.995Z,101087.03
2023-02-13T04:58:11.892Z,101078.25
2023-02-13T05:00:38.832Z,101076.28
2023-02-13T05:03:06.935Z,101072.09
2023-02-13T05:05:34.115Z,101075.53
2023-02-13T05:08:01.226Z,101069.69
2023-02-13T05:10:28.406Z,101072.88
2023-02-13T05:12:55.395Z,101077.59
2023-02-13T05:15:23.656Z,101050.91
2023-02-13T05:17:50.959Z,101065.94
2023-02-13T05:20:18.095Z,101066.81
2023-02-13T05:23:07.421Z,101069.22
2023-02-13T05:25:34.946Z,101072.53
2023-02-13T05:28:01.887Z,101054.47
2023-02-13T05:30:29.039Z,101065.28
2023-02-13T05:32:56.035Z,101064.69
2023-02-13T05:35:23.236Z,101034.72
2023-02-13T05:37:50.367Z,101061.56
2023-02-13T05:40:46.387Z,101065.25
2023-02-13T05:43:12.946Z,101069.16
2023-02-13T05:45:39.410Z,101063.66
2023-02-13T05:48:05.894Z,101060.63
2023-02-13T05:50:32.394Z,101066.91
2023-02-13T05:52:58.841Z,101072.44
2023-02-13T05:55:25.349Z,101074.03
2023-02-13T05:57:51.890Z,101078.72
2023-02-13T06:00:18.327Z,101075.81
2023-02-13T06:02:44.801Z,101078.47
2023-02-13T06:05:11.305Z,101076.59
2023-02-13T06:07:37.803Z,101072.50
2023-02-13T06:10:04.287Z,101072.75
2023-02-13T06:12:30.788Z,101082.13
2023-02-13T06:14:57.291Z,101074.63
2023-02-13T06:17:23.735Z,101076.50
2023-02-13T06:19:50.276Z,101077.13
2023-02-13T06:22:16.758Z,101074.03
2023-02-13T06:24:43.233Z,101073.84
2023-02-13T06:27:09.758Z,101078.66
2023-02-13T06:29:36.217Z,101067.47
2023-02-13T06:32:02.828Z,101080.09
2023-02-13T06:34:29.428Z,101075.72
2023-02-13T06:36:55.895Z,101078.09
2023-02-13T06:39:24.734Z,101077.38
2023-02-13T06:41:51.275Z,101077.88
2023-02-13T06:44:17.709Z,101071.75
2023-02-13T06:46:44.183Z,101071.56
2023-02-13T06:49:10.728Z,101063.22
2023-02-13T06:51:37.170Z,101067.63
2023-02-13T06:54:03.603Z,101073.59
2023-02-13T06:56:30.138Z,101065.88
2023-02-13T06:58:56.613Z,101071.81
2023-02-13T07:01:23.173Z,101075.66
2023-02-13T07:03:49.739Z,101069.53
2023-02-13T07:06:16.188Z,101068.72
2023-02-13T07:08:42.635Z,101076.25
2023-02-13T07:11:09.122Z,101069.75
2023-02-13T07:13:35.535Z,101079.81
2023-02-13T07:16:01.989Z,101074.34
2023-02-13T07:18:28.515Z,101062.31
2023-02-13T07:20:55.345Z,101069.41
2023-02-13T07:23:21.895Z,101064.31
2023-02-13T07:25:48.378Z,101061.13
2023-02-13T07:28:14.854Z,101067.34
2023-02-13T07:30:41.281Z,101064.31
2023-02-13T07:33:07.795Z,101065.75
2023-02-13T07:35:34.223Z,101075.31
2023-02-13T07:38:00.704Z,101074.69
2023-02-13T07:40:27.312Z,101080.50
2023-02-13T07:42:53.740Z,101077.59
2023-02-13T07:45:20.138Z,101080.66
2023-02-13T07:47:46.658Z,101085.94
2023-02-13T07:50:13.119Z,101081.88
2023-02-13T07:52:39.554Z,101078.91
2023-02-13T07:55:05.977Z,101086.25
2023-02-13T07:57:32.445Z,101080.41
2023-02-13T07:59:58.842Z,101074.91
2023-02-13T08:02:25.340Z,101074.09
2023-02-13T08:04:51.774Z,101090.31
2023-02-13T08:07:18.197Z,101081.75
2023-02-13T08:09:44.681Z,101079.78
2023-02-13T08:12:11.098Z,101070.09
2023-02-13T08:14:37.528Z,101073.78
2023-02-13T08:17:04.025Z,101080.59
2023-02-13T08:19:30.450Z,101078.63
2023-02-13T08:21:56.887Z,101070.25
2023-02-13T08:24:23.352Z,101067.03
2023-02-13T08:26:49.778Z,101064.66
2023-02-13T08:29:16.277Z,101064.88
2023-02-13T08:31:42.820Z,101059.06
2023-02-13T08:34:09.307Z,101063.19
2023-02-13T08:36:35.722Z,101061.69
2023-02-13T08:39:02.204Z,101066.88
2023-02-13T08:41:28.633Z,101059.44
2023-02-13T08:43:55.069Z,101061.53
2023-02-13T08:46:21.602Z,101058.88
2023-02-13T08:48:48.083Z,101064.66
2023-02-13T08:51:14.646Z,101060.03
2023-02-13T08:53:41.152Z,101063.59
2023-02-13T08:56:07.573Z,101052.59
2023-02-13T08:58:34.030Z,101056.66
2023-02-13T09:01:00.549Z,101060.25
2023-02-13T09:03:27.061Z,101061.88
2023-02-13T09:05:53.512Z,101069.50
2023-02-13T09:08:20.012Z,101072.84
2023-02-13T09:10:46.467Z,101083.69
2023-02-13T09:13:12.885Z,101104.69
2023-02-13T09:15:39.346Z,101102.41
2023-02-13T09:18:05.773Z,101087.34
2023-02-13T09:20:32.219Z,101084.78
2023-02-13T09:22:58.699Z,101094.72
2023-02-13T09:25:25.214Z,101103.94
2023-02-13T09:27:51.629Z,101092.75
2023-02-13T09:30:18.175Z,101089.50
2023-02-13T09:32:44.595Z,101097.56
2023-02-13T09:35:11.018Z,101090.34
2023-02-13T09:37:37.543Z,101090.50
2023-02-13T09:40:03.961Z,101090.31
2023-02-13T09:42:30.362Z,101091.31
2023-02-13T09:44:56.965Z,101093.91
2023-02-13T09:47:23.451Z,101089.53
2023-02-13T09:49:49.991Z,101097.34
2023-02-13T09:52:16.730Z,101089.44
2023-02-13T09:54:43.164Z,101095.00
2023-02-13T09:57:09.596Z,101091.41
2023-02-13T09:59:36.063Z,101099.84
2023-02-13T10:02:02.502Z,101097.25
2023-02-13T10:04:29.002Z,101087.84
2023-02-13T10:06:55.490Z,101091.78
2023-02-13T10:09:21.931Z,101093.22
2023-02-13T10:11:48.336Z,101081.69
2023-02-13T10:14:14.818Z,101085.28
2023-02-13T10:16:41.283Z,101080.94
2023-02-13T10:19:07.712Z,101073.97
2023-02-13T10:21:34.273Z,101070.72
2023-02-13T10:24:00.659Z,101071.69
2023-02-13T10:26:27.138Z,101080.00
2023-02-13T10:28:53.751Z,101076.94
2023-02-13T10:31:20.241Z,101074.28
2023-02-13T10:33:46.721Z,101073.97
2023-02-13T10:36:13.248Z,101065.25
2023-02-13T10:38:39.665Z,101065.09
2023-02-13T10:41:06.111Z,101061.84
2023-02-13T10:43:32.612Z,101064.59
2023-02-13T10:45:59.319Z,101067.69
2023-02-13T10:48:26.895Z,101061.19
2023-02-13T10:50:53.577Z,101058.94
2023-02-13T10:53:20.002Z,101054.06
2023-02-13T10:55:46.435Z,101049.50
2023-02-13T10:58:12.973Z,101045.28
2023-02-13T11:00:39.409Z,101047.91
2023-02-13T11:03:05.855Z,101046.09
2023-02-13T11:05:32.347Z,101042.03
2023-02-13T11:07:58.759Z,101046.25
2023-02-13T11:10:25.203Z,101044.16
2023-02-13T11:12:51.703Z,101045.28
2023-02-13T11:15:18.117Z,101035.72
2023-02-13T11:17:44.593Z,101031.50
2023-02-13T11:20:11.064Z,101032.59
2023-02-13T11:22:37.469Z,101027.91
2023-02-13T11:25:03.903Z,101025.81
2023-02-13T11:27:30.434Z,101023.38
2023-02-13T11:29:56.849Z,101020.44
2023-02-13T11:32:23.474Z,101020.59
2023-02-13T11:34:50.068Z,101017.03
2023-02-13T11:37:16.476Z,101008.09
2023-02-13T11:39:42.933Z,100999.81
2023-02-13T11:42:09.393Z,100992.97
2023-02-13T11:44:35.837Z,101001.91
2023-02-13T11:47:02.361Z,101004.53
2023-02-13T11:49:28.937Z,100994.59
2023-02-13T11:51:55.376Z,101003.66
2023-02-13T11:54:21.821Z,100996.84
2023-02-13T11:57:03.308Z,100998.47
2023-02-13T11:59:30.778Z,101005.78
2023-02-13T12:01:57.225Z,101002.03
2023-02-13T12:04:23.654Z,100994.06
2023-02-13T12:06:50.193Z,100993.75
2023-02-13T12:09:16.651Z,101004.63
2023-02-13T12:11:43.066Z,100991.78
2023-02-13T12:14:09.624Z,100980.91
2023-02-13T12:16:36.153Z,100981.09
2023-02-13T12:19:02.606Z,100978.47
2023-02-13T12:21:29.027Z,100967.84
2023-02-13T12:23:55.593Z,100966.25
2023-02-13T12:26:22.064Z,100969.25
2023-02-13T12:28:48.484Z,100972.44
2023-02-13T12:31:15.019Z,100969.72
2023-02-13T12:33:41.531Z,100961.81
2023-02-13T12:36:07.948Z,100966.72
2023-02-13T12:38:34.449Z,100953.00
2023-02-13T12:41:01.183Z,100957.69
2023-02-13T12:43:27.737Z,100945.94
2023-02-13T12:45:54.244Z,100942.84
2023-02-13T12:48:20.683Z,100946.69
2023-02-13T12:50:47.089Z,100942.59
2023-02-13T12:53:13.563Z,100945.22
2023-02-13T12:55:39.976Z,100941.16
2023-02-13T12:58:06.428Z,100940.13
2023-02-13T13:00:32.928Z,100947.56
2023-02-13T13:02:59.384Z,100953.03
2023-02-13T13:05:25.840Z,100951.63
2023-02-13T13:07:52.324Z,100952.78
2023-02-13T13:10:18.735Z,100959.19
2023-02-13T13:12:45.150Z,100962.38
2023-02-13T13:15:11.651Z,100947.97
2023-02-13T13:17:38.075Z,100964.47
2023-02-13T13:20:04.487Z,100956.78
2023-02-13T13:22:30.988Z,100966.31
2023-02-13T13:24:57.410Z,100969.03
2023-02-13T13:27:23.834Z,100973.94
2023-02-13T13:29:50.350Z,100968.25
2023-02-13T13:32:16.799Z,100975.09
2023-02-13T13:34:43.233Z,100975.22
2023-02-13T13:37:11.689Z,100976.03
2023-02-13T13:39:38.368Z,100964.34
2023-02-13T13:42:04.827Z,100971.19
2023-02-13T13:44:31.301Z,100978.69
2023-02-13T13:46:57.721Z,100972.06
2023-02-13T13:49:24.145Z,100968.25
2023-02-13T13:51:50.605Z,100965.56
2023-02-13T13:54:17.125Z,100972.56
2023-02-13T13:56:43.572Z,100970.03
2023-02-13T13:59:10.019Z,100967.34
2023-02-13T14:01:36.541Z,100971.50
2023-02-13T14:04:02.968Z,100968.59
2023-02-13T14:06:29.463Z,100975.41
2023-02-13T14:08:55.915Z,100963.28
2023-02-13T14:11:22.298Z,100963.94
2023-02-13T14:13:48.738Z,100962.81
2023-02-13T14:16:15.229Z,100965.59
2023-02-13T14:18:41.624Z,100973.84
2023-02-13T14:21:08.082Z,100977.06
2023-02-13T14:23:34.553Z,100965.19
2023-02-13T14:26:01.021Z,100970.00
2023-02-13T14:28:27.548Z,100971.00
2023-02-13T14:30:56.630Z,100970.81
2023-02-13T14:33:23.252Z,100972.56
2023-02-13T14:35:49.698Z,100978.78
2023-02-13T14:38:16.104Z,100977.94
2023-02-13T14:40:42.527Z,100981.72
2023-02-13T14:43:09.001Z,100980.94
2023-02-13T14:45:35.450Z,100967.59
2023-02-13T14:48:01.887Z,100965.91
2023-02-13T14:50:28.383Z,100970.38
2023-02-13T14:52:54.787Z,100965.59
2023-02-13T14:55:21.200Z,100971.16
2023-02-13T14:57:47.715Z,100969.78
2023-02-13T15:00:14.150Z,100966.09
2023-02-13T15:02:40.584Z,100966.06
2023-02-13T15:05:07.047Z,100965.56
2023-02-13T15:07:33.497Z,100966.81
2023-02-13T15:10:00.167Z,100964.91
2023-02-13T15:12:26.700Z,100961.81
2023-02-13T15:14:53.110Z,100967.28
2023-02-13T15:17:19.610Z,100958.97
2023-02-13T15:19:46.102Z,100962.84
2023-02-13T15:22:12.551Z,100959.59
2023-02-13T15:24:38.969Z,100955.63
2023-02-13T15:27:05.445Z,100953.66
2023-02-13T15:29:44.327Z,100949.16
2023-02-13T15:32:15.651Z,100954.19
2023-02-13T15:34:42.074Z,100953.25
2023-02-13T15:37:08.504Z,100939.19
2023-02-13T15:39:34.954Z,100941.13
2023-02-13T15:42:01.356Z,100947.44
2023-02-13T15:44:27.780Z,100949.88
2023-02-13T15:46:54.363Z,100943.56
2023-02-13T15:49:20.896Z,100939.50
2023-02-13T15:51:47.298Z,100935.84
2023-02-13T15:54:13.846Z,100933.78
2023-02-13T15:56:40.307Z,100941.28
2023-02-13T15:59:06.724Z,100942.22
2023-02-13T16:01:33.207Z,100939.66
2023-02-13T16:03:59.697Z,100938.56
2023-02-13T16:06:26.135Z,100938.16
2023-02-13T16:08:52.629Z,100935.97
2023-02-13T16:11:19.046Z,100936.13
2023-02-13T16:13:45.436Z,100938.22
2023-02-13T16:16:12.129Z,100934.19
2023-02-13T16:18:38.586Z,100931.84
2023-02-13T16:21:04.992Z,100924.81
2023-02-13T16:23:31.438Z,100923.25
2023-02-13T16:25:57.897Z,100927.13
2023-02-13T16:28:24.356Z,100943.59
2023-02-13T16:30:50.818Z,100944.94
2023-02-13T16:33:17.284Z,100948.69
2023-02-13T16:35:43.679Z,100948.00
2023-02-13T16:38:10.205Z,100942.41
2023-02-13T16:40:36.608Z,100947.50
2023-02-13T16:43:03.026Z,100931.25
2023-02-13T16:45:29.548Z,100939.09
2023-02-13T16:47:55.996Z,100939.47
2023-02-13T16:50:22.416Z,100943.75
2023-02-13T16:52:48.854Z,100939.69
2023-02-13T16:55:15.259Z,100940.38
2023-02-13T16:57:41.661Z,100949.22
2023-02-13T17:00:08.146Z,100943.16
2023-02-13T17:02:34.535Z,100945.72
2023-02-13T17:05:00.927Z,100948.50
2023-02-13T17:07:27.368Z,100944.41
2023-02-13T17:09:53.748Z,100945.06
2023-02-13T17:12:20.143Z,100956.00
2023-02-13T17:14:46.625Z,100949.56
2023-02-13T17:17:13.040Z,100941.38
2023-02-13T17:19:39.408Z,100951.84
2023-02-13T17:22:05.822Z,100947.81
2023-02-13T17:24:32.222Z,100940.09
2023-02-13T17:26:58.595Z,100939.97
2023-02-13T17:29:25.025Z,100951.03
2023-02-13T17:31:51.542Z,100945.94
2023-02-13T17:34:17.981Z,100950.94
2023-02-13T17:36:44.432Z,100951.19
2023-02-13T17:39:10.820Z,100949.47
2023-02-13T17:41:37.274Z,100938.31
2023-02-13T17:44:03.805Z,100932.84
2023-02-13T17:46:30.220Z,100916.75
2023-02-13T17:48:56.619Z,100924.16
2023-02-13T17:51:23.123Z,100921.28
2023-02-13T17:53:49.630Z,100917.59
2023-02-13T17:56:16.020Z,100913.72
2023-02-13T17:58:42.512Z,100907.63
2023-02-13T18:01:08.934Z,100913.47
2023-02-13T18:03:35.352Z,100908.06
2023-02-13T18:06:01.939Z,100912.72
2023-02-13T18:08:28.421Z,100919.50
2023-02-13T18:10:54.840Z,100918.16
2023-02-13T18:13:21.272Z,100916.31
2023-02-13T18:15:47.677Z,100916.31
2023-02-13T18:18:14.099Z,100901.06
2023-02-13T18:20:40.526Z,100896.44
2023-02-13T18:23:06.902Z,100902.72
2023-02-13T18:25:33.300Z,100891.81
2023-02-13T18:27:59.779Z,100891.03
2023-02-13T18:30:26.299Z,100906.00
2023-02-13T18:32:52.707Z,100918.84
2023-02-13T18:35:19.144Z,100912.28
2023-02-13T18:37:45.548Z,100915.84
2023-02-13T18:40:11.915Z,100916.69
2023-02-13T18:42:38.355Z,100916.94
2023-02-13T18:45:04.775Z,100906.84
2023-02-13T18:47:31.220Z,100899.47
2023-02-13T18:49:57.675Z,100900.59
2023-02-13T18:52:24.078Z,100901.13
2023-02-13T18:54:50.475Z,100906.56
2023-02-13T18:57:16.930Z,100903.31
2023-02-13T18:59:43.333Z,100894.59
2023-02-13T19:02:09.758Z,100899.78
2023-02-13T19:04:36.263Z,100895.41
2023-02-13T19:07:02.647Z,100900.03
2023-02-13T19:09:29.054Z,100897.88
2023-02-13T19:11:55.594Z,100876.06
2023-02-13T19:14:22.119Z,100905.47
2023-02-13T19:16:48.563Z,100900.03
2023-02-13T19:19:14.963Z,100910.91
2023-02-13T19:21:41.349Z,100903.53
2023-02-13T19:24:07.738Z,100911.44
2023-02-13T19:26:34.166Z,100893.72
2023-02-13T19:29:00.542Z,100925.03
2023-02-13T19:31:27.141Z,100913.59
2023-02-13T19:33:53.640Z,100913.59
2023-02-13T19:36:20.134Z,100912.50
2023-02-13T19:38:46.590Z,100915.47
2023-02-13T19:41:13.064Z,100922.81
2023-02-13T19:43:39.491Z,100920.91
2023-02-13T19:46:05.942Z,100919.78
2023-02-13T19:48:32.480Z,100924.94
2023-02-13T19:50:59.203Z,100923.81
2023-02-13T19:53:25.809Z,100930.88
2023-02-13T19:55:52.257Z,100934.13
2023-02-13T19:58:18.642Z,100943.09
2023-02-13T20:00:45.016Z,100948.78
2023-02-13T20:03:11.527Z,100946.34
2023-02-13T20:05:38.010Z,100952.03
2023-02-13T20:08:04.430Z,100955.84
2023-02-13T20:10:30.856Z,100949.03
2023-02-13T20:12:57.242Z,100956.91
2023-02-13T20:15:23.689Z,100958.78
2023-02-13T20:17:50.132Z,100960.97
2023-02-13T20:20:16.513Z,100956.59
2023-02-13T20:22:42.893Z,100955.78
2023-02-13T20:25:09.340Z,100949.19
2023-02-13T20:30:07.872Z,100960.56
2023-02-13T20:32:34.484Z,100955.66
2023-02-13T20:35:00.976Z,100945.31
2023-02-13T20:37:27.379Z,100953.97
2023-02-13T20:39:53.819Z,100961.59
2023-02-13T20:42:20.205Z,100956.16
2023-02-13T20:44:46.756Z,100951.78
2023-02-13T20:47:13.272Z,100946.88
2023-02-13T20:49:39.662Z,100950.13
2023-02-13T20:52:06.123Z,100953.38
2023-02-13T20:54:32.594Z,100950.06
2023-02-13T20:56:59.069Z,100956.03
2023-02-13T20:59:25.485Z,100955.75
2023-02-13T21:01:51.926Z,100948.94
2023-02-13T21:04:18.330Z,100959.25
2023-02-13T21:06:44.723Z,100967.38
2023-02-13T21:09:11.149Z,100967.88
2023-02-13T21:11:37.541Z,100964.88
2023-02-13T21:14:03.953Z,100968.09
2023-02-13T21:16:30.469Z,100966.72
2023-02-13T21:18:56.976Z,100970.78
2023-02-13T21:21:23.408Z,100973.44
2023-02-13T21:23:49.962Z,100969.34
2023-02-13T21:26:16.426Z,100968.22
2023-02-13T21:28:42.824Z,100973.09
2023-02-13T21:31:09.408Z,100977.09
2023-02-13T21:33:35.817Z,100976.78
2023-02-13T21:36:02.273Z,100972.97
2023-02-13T21:38:28.701Z,100972.41
2023-02-13T21:40:55.083Z,100969.63
2023-02-13T21:43:21.516Z,100963.88
2023-02-13T21:45:48.156Z,100972.31
2023-02-13T21:48:14.583Z,100969.25
2023-02-13T21:50:40.966Z,100969.78
2023-02-13T21:53:07.422Z,100956.19
2023-02-13T21:55:33.832Z,100958.56
2023-02-13T21:58:00.248Z,100955.03
2023-02-13T22:00:26.715Z,100951.50
2023-02-13T22:02:53.199Z,100953.59
2023-02-13T22:05:19.614Z,100955.81
2023-02-13T22:07:46.052Z,100954.34
2023-02-13T22:10:12.495Z,100952.75
2023-02-13T22:12:38.882Z,100954.94
2023-02-13T22:15:05.342Z,100947.78
2023-02-13T22:17:31.825Z,100951.50
2023-02-13T22:19:58.289Z,100950.91
2023-02-13T22:22:24.721Z,100950.63
2023-02-13T22:24:51.182Z,100945.63
2023-02-13T22:27:17.545Z,100943.44
2023-02-13T22:29:43.993Z,100944.78
2023-02-13T22:32:10.522Z,100939.59
2023-02-13T22:34:37.079Z,100944.72
2023-02-13T22:37:03.521Z,100943.56
2023-02-13T22:39:29.924Z,100939.22
2023-02-13T22:41:56.339Z,100941.63
2023-02-13T22:44:22.781Z,100943.78
2023-02-13T22:46:49.181Z,100950.53
2023-02-13T22:49:15.583Z,100945.59
2023-02-13T22:51:42.065Z,100944.47
2023-02-13T22:54:08.437Z,100948.50
2023-02-13T22:56:34.864Z,100948.75
2023-02-13T22:59:01.588Z,100950.09
2023-02-13T23:01:28.029Z,100947.63
2023-02-13T23:03:54.588Z,100946.50
2023-02-13T23:06:21.045Z,100946.19
2023-02-13T23:08:47.410Z,100950.22
2023-02-13T23:11:13.851Z,100948.81
2023-02-13T23:13:40.300Z,100952.59
2023-02-13T23:16:06.767Z,100944.16
2023-02-13T23:18:33.275Z,100945.47
2023-02-13T23:20:59.951Z,100938.69
2023-02-13T23:23:26.535Z,100940.00
2023-02-13T23:25:53.094Z,100940.22
2023-02-13T23:28:19.587Z,100927.19
2023-02-13T23:30:46.093Z,100937.72
2023-02-13T23:33:12.593Z,100937.91
2023-02-13T23:35:39.061Z,100937.59
2023-02-13T23:38:05.476Z,100943.28
2023-02-13T23:40:31.917Z,100948.13
2023-02-13T23:42:58.444Z,100937.78
2023-02-13T23:45:24.946Z,100930.78
2023-02-13T23:47:51.453Z,100935.00
2023-02-13T23:50:17.924Z,100933.09
2023-02-13T23:52:44.326Z,100928.84
2023-02-13T23:55:10.702Z,100930.25
2023-02-13T23:57:37.140Z,100931.63
